createdAt,value
2019-02-24T00:00:07.948Z,99661.49
2019-02-24T00:02:37.951Z,99650.16
2019-02-24T00:05:04.847Z,99652.99
2019-02-24T00:07:31.565Z,99649.77
2019-02-24T00:09:58.355Z,99649.91
2019-02-24T00:12:25.044Z,99638.09
2019-02-24T00:14:51.955Z,99645.50
2019-02-24T00:17:18.703Z,99652.77
2019-02-24T00:19:45.494Z,99643.61
2019-02-24T00:22:12.206Z,99640.60
2019-02-24T00:24:38.890Z,99640.88
2019-02-24T00:27:05.582Z,99642.48
2019-02-24T00:29:32.248Z,99646.25
2019-02-24T00:31:59.111Z,99646.39
2019-02-24T00:34:25.925Z,99649.00
2019-02-24T00:36:52.632Z,99645.64
2019-02-24T00:39:19.477Z,99647.46
2019-02-24T00:41:46.161Z,99645.08
2019-02-24T00:44:12.871Z,99649.69
2019-02-24T00:46:39.582Z,99654.78
2019-02-24T00:49:06.358Z,99657.01
2019-02-24T00:51:33.059Z,99648.47
2019-02-24T00:53:59.753Z,99643.11
2019-02-24T00:56:29.370Z,99653.03
2019-02-24T00:58:56.171Z,99647.64
2019-02-24T01:01:22.974Z,99645.91
2019-02-24T01:03:49.657Z,99652.05
2019-02-24T01:06:16.304Z,99647.50
2019-02-24T01:08:43.356Z,99652.73
2019-02-24T01:11:10.035Z,99645.55
2019-02-24T01:13:36.834Z,99645.12
2019-02-24T01:16:03.611Z,99643.93
2019-02-24T01:18:30.379Z,99651.81
2019-02-24T01:20:57.079Z,99644.60
2019-02-24T01:23:23.862Z,99634.61
2019-02-24T01:25:50.664Z,99638.50
2019-02-24T01:28:25.018Z,99636.47
2019-02-24T01:30:46.055Z,99637.61
2019-02-24T01:33:12.854Z,99637.26
2019-02-24T01:35:39.706Z,99628.95
2019-02-24T01:38:06.366Z,99627.41
2019-02-24T01:40:33.180Z,99634.87
2019-02-24T01:42:59.983Z,99637.93
2019-02-24T01:45:26.717Z,99628.29
2019-02-24T01:47:53.429Z,99624.80
2019-02-24T01:50:20.283Z,99619.89
2019-02-24T01:52:46.971Z,99612.91
2019-02-24T01:55:13.740Z,99611.23
2019-02-24T01:57:40.565Z,99611.23
2019-02-24T02:00:08.666Z,99609.91
2019-02-24T02:02:35.328Z,99610.88
2019-02-24T02:05:02.134Z,99608.84
2019-02-24T02:07:28.894Z,99605.97
2019-02-24T02:09:55.635Z,99610.25
2019-02-24T02:12:22.420Z,99608.44
2019-02-24T02:14:49.262Z,99610.87
2019-02-24T02:17:15.957Z,99612.77
2019-02-24T02:19:42.670Z,99616.52
2019-02-24T02:22:09.845Z,99620.64
2019-02-24T02:24:36.543Z,99616.80
2019-02-24T02:27:03.360Z,99610.30
2019-02-24T02:29:30.050Z,99614.41
2019-02-24T02:31:56.827Z,99605.61
2019-02-24T02:34:23.506Z,99612.73
2019-02-24T02:36:50.131Z,99617.68
2019-02-24T02:39:17.061Z,99608.17
2019-02-24T02:41:43.937Z,99611.31
2019-02-24T02:44:10.569Z,99606.41
2019-02-24T02:46:37.295Z,99600.39
2019-02-24T02:49:04.650Z,99608.97
2019-02-24T02:51:31.385Z,99604.28
2019-02-24T02:53:58.096Z,99599.95
2019-02-24T02:56:24.809Z,99597.11
2019-02-24T02:58:54.313Z,99596.49
2019-02-24T03:01:20.338Z,99592.64
2019-02-24T03:03:47.104Z,99583.63
2019-02-24T03:06:42.416Z,99580.63
2019-02-24T03:09:10.407Z,99583.41
2019-02-24T03:11:37.175Z,99585.48
2019-02-24T03:14:03.915Z,99575.63
2019-02-24T03:16:30.655Z,99572.27
2019-02-24T03:18:57.484Z,99576.02
2019-02-24T03:21:24.302Z,99576.02
2019-02-24T03:23:51.008Z,99573.38
2019-02-24T03:26:17.811Z,99565.64
2019-02-24T03:28:44.588Z,99567.81
2019-02-24T03:31:11.257Z,99573.47
2019-02-24T03:33:38.083Z,99575.63
2019-02-24T03:36:04.843Z,99578.98
2019-02-24T03:38:31.557Z,99586.59
2019-02-24T03:40:58.278Z,99588.27
2019-02-24T03:43:25.118Z,99589.72
2019-02-24T03:45:51.813Z,99587.08
2019-02-24T03:48:18.692Z,99587.43
2019-02-24T03:50:45.388Z,99586.23
2019-02-24T03:53:12.515Z,99596.13
2019-02-24T03:55:39.435Z,99591.70
2019-02-24T03:58:06.132Z,99590.16
2019-02-24T04:00:32.955Z,99602.70
2019-02-24T04:02:59.635Z,99589.65
2019-02-24T04:05:26.549Z,99603.54
2019-02-24T04:07:53.344Z,99604.55
2019-02-24T04:10:20.093Z,99599.02
2019-02-24T04:12:46.840Z,99605.70
2019-02-24T04:15:13.634Z,99600.27
2019-02-24T04:17:40.359Z,99600.05
2019-02-24T04:20:07.123Z,99608.00
2019-02-24T04:22:34.159Z,99604.02
2019-02-24T04:25:01.026Z,99605.03
2019-02-24T04:27:28.959Z,99606.48
2019-02-24T04:29:55.799Z,99606.26
2019-02-24T04:32:22.512Z,99609.63
2019-02-24T04:34:49.247Z,99611.69
2019-02-24T04:37:16.030Z,99614.47
2019-02-24T04:39:42.820Z,99616.28
2019-02-24T04:42:09.745Z,99624.72
2019-02-24T04:44:36.704Z,99621.70
2019-02-24T04:47:03.605Z,99621.84
2019-02-24T04:49:30.410Z,99623.29
2019-02-24T04:51:57.144Z,99625.10
2019-02-24T04:54:23.911Z,99624.03
2019-02-24T04:56:50.628Z,99625.48
2019-02-24T04:59:17.340Z,99626.81
2019-02-24T05:01:44.162Z,99624.16
2019-02-24T05:04:10.969Z,99625.97
2019-02-24T05:06:37.665Z,99623.94
2019-02-24T05:09:04.602Z,99626.84
2019-02-24T05:11:31.298Z,99632.27
2019-02-24T05:13:58.007Z,99625.64
2019-02-24T05:16:24.773Z,99619.50
2019-02-24T05:18:51.466Z,99619.37
2019-02-24T05:21:18.481Z,99616.05
2019-02-24T05:23:45.069Z,99620.83
2019-02-24T05:26:11.985Z,99618.34
2019-02-24T05:28:38.747Z,99621.96
2019-02-24T05:31:05.549Z,99615.82
2019-02-24T05:33:32.349Z,99622.80
2019-02-24T05:35:59.116Z,99629.06
2019-02-24T05:38:25.841Z,99635.33
2019-02-24T05:40:52.552Z,99650.27
2019-02-24T05:43:19.410Z,99649.19
2019-02-24T05:45:46.200Z,99650.52
2019-02-24T05:48:12.894Z,99640.05
2019-02-24T05:50:39.646Z,99635.36
2019-02-24T05:53:06.457Z,99632.45
2019-02-24T05:55:33.239Z,99631.26
2019-02-24T05:57:59.927Z,99637.88
2019-02-24T06:00:26.712Z,99641.38
2019-02-24T06:02:53.378Z,99638.72
2019-02-24T06:05:20.236Z,99649.44
2019-02-24T06:07:47.111Z,99649.92
2019-02-24T06:10:14.348Z,99669.44
2019-02-24T06:12:41.377Z,99660.17
2019-02-24T06:15:08.249Z,99673.28
2019-02-24T06:17:35.096Z,99672.67
2019-02-24T06:20:01.931Z,99667.00
2019-02-24T06:22:28.743Z,99669.23
2019-02-24T06:24:55.454Z,99669.11
2019-02-24T06:27:22.174Z,99673.05
2019-02-24T06:29:49.327Z,99669.89
2019-02-24T06:32:16.005Z,99674.80
2019-02-24T06:34:42.760Z,99678.95
2019-02-24T06:37:09.497Z,99669.52
2019-02-24T06:39:36.169Z,99675.23
2019-02-24T06:42:02.860Z,99670.53
2019-02-24T06:44:29.564Z,99672.01
2019-02-24T06:46:58.277Z,99666.23
2019-02-24T06:49:25.206Z,99662.52
2019-02-24T06:51:51.916Z,99664.29
2019-02-24T06:54:18.851Z,99669.23
2019-02-24T06:56:45.647Z,99665.19
2019-02-24T06:59:12.450Z,99663.13
2019-02-24T07:01:40.422Z,99662.20
2019-02-24T07:04:07.316Z,99659.40
2019-02-24T07:06:34.046Z,99647.27
2019-02-24T07:09:01.291Z,99643.97
2019-02-24T07:11:27.994Z,99647.48
2019-02-24T07:13:54.727Z,99644.81
2019-02-24T07:16:21.522Z,99636.46
2019-02-24T07:18:48.313Z,99633.89
2019-02-24T07:21:15.090Z,99624.89
2019-02-24T07:23:42.387Z,99621.44
2019-02-24T07:26:09.221Z,99610.49
2019-02-24T07:28:35.991Z,99610.55
2019-02-24T07:31:02.835Z,99583.43
2019-02-24T07:33:29.611Z,99578.52
2019-02-24T07:35:56.335Z,99581.61
2019-02-24T07:38:22.999Z,99587.68
2019-02-24T07:40:49.716Z,99591.08
2019-02-24T07:43:16.408Z,99598.25
2019-02-24T07:45:43.108Z,99596.27
2019-02-24T07:48:09.833Z,99605.37
2019-02-24T07:50:36.505Z,99632.80
2019-02-24T07:53:03.328Z,99628.23
2019-02-24T07:55:30.035Z,99637.73
2019-02-24T07:57:56.795Z,99633.86
2019-02-24T08:00:31.690Z,99625.47
2019-02-24T08:02:52.214Z,99622.67
2019-02-24T08:05:18.835Z,99613.88
2019-02-24T08:07:45.630Z,99614.48
2019-02-24T08:10:12.477Z,99610.52
2019-02-24T08:12:39.367Z,99600.83
2019-02-24T08:15:06.404Z,99601.70
2019-02-24T08:17:33.115Z,99607.55
2019-02-24T08:19:59.895Z,99626.95
2019-02-24T08:22:26.567Z,99640.66
2019-02-24T08:24:53.291Z,99627.97
2019-02-24T08:27:20.004Z,99630.80
2019-02-24T08:29:46.981Z,99623.23
2019-02-24T08:32:13.749Z,99627.52
2019-02-24T08:34:40.473Z,99644.13
2019-02-24T08:37:07.117Z,99641.36
2019-02-24T08:39:33.766Z,99629.20
2019-02-24T08:42:00.392Z,99619.77
2019-02-24T08:44:27.102Z,99589.77
2019-02-24T08:46:54.029Z,99578.44
2019-02-24T08:49:20.695Z,99564.16
2019-02-24T08:51:47.544Z,99568.09
2019-02-24T08:54:14.341Z,99611.99
2019-02-24T08:56:41.005Z,99609.55
2019-02-24T08:59:07.699Z,99608.93
2019-02-24T09:01:34.474Z,99623.78
2019-02-24T09:04:01.067Z,99601.76
2019-02-24T09:06:27.734Z,99603.28
2019-02-24T09:08:54.558Z,99604.84
2019-02-24T09:11:21.218Z,99582.70
2019-02-24T09:13:48.073Z,99596.44
2019-02-24T09:16:14.839Z,99580.60
2019-02-24T09:18:41.715Z,99580.71
2019-02-24T09:21:08.432Z,99581.49
2019-02-24T09:23:35.187Z,99576.17
2019-02-24T09:26:01.986Z,99581.66
2019-02-24T09:28:28.832Z,99587.58
2019-02-24T09:31:00.772Z,99587.41
2019-02-24T09:33:24.538Z,99583.81
2019-02-24T09:35:51.815Z,99586.85
2019-02-24T09:38:19.660Z,99582.95
2019-02-24T09:40:46.431Z,99569.91
2019-02-24T09:43:13.126Z,99564.44
2019-02-24T09:45:39.929Z,99563.02
2019-02-24T09:48:06.617Z,99563.28
2019-02-24T09:50:34.444Z,99554.51
2019-02-24T09:53:01.156Z,99556.08
2019-02-24T09:55:27.882Z,99566.33
2019-02-24T09:57:54.768Z,99571.77
2019-02-24T10:00:22.106Z,99567.21
2019-02-24T10:02:48.970Z,99568.38
2019-02-24T10:05:15.696Z,99583.83
2019-02-24T10:07:43.662Z,99588.00
2019-02-24T10:10:10.613Z,99590.47
2019-02-24T10:12:37.297Z,99592.66
2019-02-24T10:15:04.226Z,99603.27
2019-02-24T10:17:32.916Z,99605.08
2019-02-24T10:19:59.670Z,99598.09
2019-02-24T10:22:26.498Z,99595.61
2019-02-24T10:24:59.110Z,99602.63
2019-02-24T10:27:25.797Z,99603.83
2019-02-24T10:29:52.621Z,99608.41
2019-02-24T10:32:19.417Z,99609.41
2019-02-24T10:34:46.201Z,99621.48
2019-02-24T10:37:13.068Z,99635.86
2019-02-24T10:39:39.771Z,99639.52
2019-02-24T10:42:06.542Z,99636.73
2019-02-24T10:44:33.274Z,99627.06
2019-02-24T10:47:02.143Z,99628.54
2019-02-24T10:49:28.900Z,99631.41
2019-02-24T10:51:55.904Z,99632.04
2019-02-24T10:54:22.704Z,99630.10
2019-02-24T10:56:49.574Z,99625.61
2019-02-24T10:59:17.000Z,99641.89
2019-02-24T11:01:44.722Z,99638.52
2019-02-24T11:04:11.450Z,99627.09
2019-02-24T11:06:39.196Z,99622.45
2019-02-24T11:09:06.219Z,99640.69
2019-02-24T11:11:40.922Z,99648.92
2019-02-24T11:14:07.676Z,99639.70
2019-02-24T11:16:34.390Z,99631.78
2019-02-24T11:19:01.268Z,99630.52
2019-02-24T11:21:28.056Z,99625.17
2019-02-24T11:23:55.228Z,99623.45
2019-02-24T11:26:22.050Z,99632.48
2019-02-24T11:28:49.023Z,99641.49
2019-02-24T11:31:15.892Z,99629.17
2019-02-24T11:33:42.743Z,99611.69
2019-02-24T11:36:09.567Z,99602.99
2019-02-24T11:38:36.323Z,99599.57
2019-02-24T11:41:03.130Z,99592.50
2019-02-24T11:43:29.828Z,99585.95
2019-02-24T11:45:57.086Z,99576.91
2019-02-24T11:48:25.531Z,99567.09
2019-02-24T11:50:52.653Z,99593.55
2019-02-24T11:53:19.541Z,99591.57
2019-02-24T11:56:06.366Z,99578.16
2019-02-24T11:58:33.307Z,99572.92
2019-02-24T12:01:00.742Z,99561.54
2019-02-24T12:03:27.857Z,99551.75
2019-02-24T12:05:55.270Z,99555.72
2019-02-24T12:08:22.541Z,99561.05
2019-02-24T12:10:49.854Z,99561.48
2019-02-24T12:13:18.786Z,99556.47
2019-02-24T12:15:46.058Z,99557.11
2019-02-24T12:18:13.106Z,99556.44
2019-02-24T12:20:40.064Z,99556.97
2019-02-24T12:23:07.527Z,99551.95
2019-02-24T12:25:37.132Z,99551.36
2019-02-24T12:28:04.106Z,99544.98
2019-02-24T12:30:31.342Z,99553.95
2019-02-24T12:32:58.564Z,99552.48
2019-02-24T12:35:25.527Z,99548.63
2019-02-24T12:37:52.898Z,99548.31
2019-02-24T12:40:19.962Z,99539.95
2019-02-24T12:42:46.996Z,99555.76
2019-02-24T12:45:13.937Z,99558.11
2019-02-24T12:47:40.904Z,99552.97
2019-02-24T12:50:08.946Z,99553.75
2019-02-24T12:52:35.935Z,99545.23
2019-02-24T12:55:03.069Z,99545.10
2019-02-24T12:57:38.866Z,99543.76
2019-02-24T13:00:10.204Z,99528.75
2019-02-24T13:02:37.297Z,99529.38
2019-02-24T13:05:04.480Z,99528.52
2019-02-24T13:07:31.648Z,99533.06
2019-02-24T13:09:59.128Z,99531.31
2019-02-24T13:12:26.201Z,99532.30
2019-02-24T13:14:53.278Z,99529.81
2019-02-24T13:17:20.265Z,99526.80
2019-02-24T13:19:47.216Z,99525.56
2019-02-24T13:22:14.260Z,99531.16
2019-02-24T13:24:41.433Z,99520.30
2019-02-24T13:27:08.620Z,99517.73
2019-02-24T13:29:35.638Z,99514.14
2019-02-24T13:32:02.595Z,99523.77
2019-02-24T13:34:30.789Z,99533.91
2019-02-24T13:36:58.193Z,99535.19
2019-02-24T13:39:25.216Z,99531.42
2019-02-24T13:41:52.319Z,99521.44
2019-02-24T13:44:19.486Z,99521.37
2019-02-24T13:46:46.413Z,99522.88
2019-02-24T13:49:13.506Z,99521.02
2019-02-24T13:51:40.376Z,99519.67
2019-02-24T13:54:08.092Z,99513.52
2019-02-24T13:56:34.774Z,99515.78
2019-02-24T13:59:01.575Z,99507.34
2019-02-24T14:01:28.488Z,99510.25
2019-02-24T14:03:55.283Z,99515.16
2019-02-24T14:06:22.158Z,99516.97
2019-02-24T14:08:48.860Z,99519.72
2019-02-24T14:11:15.567Z,99513.71
2019-02-24T14:13:42.246Z,99512.51
2019-02-24T14:16:08.896Z,99515.83
2019-02-24T14:18:35.723Z,99517.12
2019-02-24T14:21:02.528Z,99512.67
2019-02-24T14:23:29.398Z,99504.63
2019-02-24T14:25:56.118Z,99502.36
2019-02-24T14:28:23.112Z,99498.45
2019-02-24T14:30:49.791Z,99495.77
2019-02-24T14:33:16.471Z,99499.00
2019-02-24T14:35:43.141Z,99505.55
2019-02-24T14:40:37.701Z,99507.92
2019-02-24T14:43:04.420Z,99513.23
2019-02-24T14:45:31.207Z,99501.86
2019-02-24T14:47:57.917Z,99502.12
2019-02-24T14:50:24.646Z,99503.05
2019-02-24T14:52:51.475Z,99507.83
2019-02-24T14:55:18.256Z,99512.00
2019-02-24T14:57:44.950Z,99511.73
2019-02-24T15:00:12.132Z,99515.02
2019-02-24T15:02:42.398Z,99520.55
2019-02-24T15:05:08.058Z,99521.77
2019-02-24T15:07:34.751Z,99527.13
2019-02-24T15:10:01.442Z,99526.84
2019-02-24T15:12:28.120Z,99528.59
2019-02-24T15:14:54.900Z,99525.12
2019-02-24T15:17:21.742Z,99526.26
2019-02-24T15:19:48.526Z,99528.22
2019-02-24T15:22:15.396Z,99523.34
2019-02-24T15:24:42.192Z,99523.45
2019-02-24T15:27:09.021Z,99525.25
2019-02-24T15:29:35.889Z,99533.99
2019-02-24T15:32:02.630Z,99520.06
2019-02-24T15:34:29.657Z,99522.05
2019-02-24T15:36:56.646Z,99519.45
2019-02-24T15:39:23.710Z,99522.80
2019-02-24T15:41:50.585Z,99521.63
2019-02-24T15:44:17.292Z,99513.95
2019-02-24T15:46:45.325Z,99513.58
2019-02-24T15:49:13.036Z,99502.67
2019-02-24T15:51:39.931Z,99502.57
2019-02-24T15:54:06.847Z,99498.34
2019-02-24T15:56:33.524Z,99498.55
2019-02-24T15:59:00.320Z,99499.69
2019-02-24T16:01:27.100Z,99490.55
2019-02-24T16:03:53.965Z,99486.73
2019-02-24T16:06:20.559Z,99484.09
2019-02-24T16:08:47.370Z,99492.20
2019-02-24T16:11:14.248Z,99494.77
2019-02-24T16:13:42.043Z,99497.02
2019-02-24T16:16:08.716Z,99505.72
2019-02-24T16:18:35.502Z,99506.09
2019-02-24T16:21:02.197Z,99513.87
2019-02-24T16:23:28.907Z,99513.08
2019-02-24T16:25:57.269Z,99515.94
2019-02-24T16:28:23.946Z,99524.53
2019-02-24T16:30:50.711Z,99527.50
2019-02-24T16:33:17.492Z,99532.77
2019-02-24T16:35:44.405Z,99524.33
2019-02-24T16:38:11.092Z,99529.55
2019-02-24T16:40:41.107Z,99528.70
2019-02-24T16:43:07.840Z,99524.45
2019-02-24T16:45:34.659Z,99528.02
2019-02-24T16:48:01.552Z,99535.92
2019-02-24T16:50:28.417Z,99537.14
2019-02-24T16:52:55.196Z,99539.29
2019-02-24T16:55:22.141Z,99543.00
2019-02-24T16:57:50.107Z,99540.39
2019-02-24T17:00:17.949Z,99535.95
2019-02-24T17:02:51.049Z,99531.23
2019-02-24T17:05:17.940Z,99535.69
2019-02-24T17:07:44.792Z,99542.25
2019-02-24T17:10:12.500Z,99536.04
2019-02-24T17:12:39.373Z,99530.48
2019-02-24T17:15:07.309Z,99528.30
2019-02-24T17:17:34.000Z,99537.34
2019-02-24T17:20:01.879Z,99548.88
2019-02-24T17:22:28.806Z,99545.63
2019-02-24T17:24:55.635Z,99554.48
2019-02-24T17:27:22.391Z,99558.09
2019-02-24T17:29:49.132Z,99559.72
2019-02-24T17:32:15.951Z,99567.37
2019-02-24T17:34:42.650Z,99560.59
2019-02-24T17:37:09.570Z,99557.71
2019-02-24T17:39:36.369Z,99562.69
2019-02-24T17:42:03.110Z,99559.95
2019-02-24T17:44:31.842Z,99562.03
2019-02-24T17:46:58.651Z,99571.17
2019-02-24T17:49:25.540Z,99582.45
2019-02-24T17:51:53.322Z,99577.28
2019-02-24T17:54:20.367Z,99580.38
2019-02-24T17:56:47.240Z,99580.92
2019-02-24T17:59:13.911Z,99577.25
2019-02-24T18:01:40.750Z,99575.09
2019-02-24T18:04:07.414Z,99582.30
2019-02-24T18:06:34.195Z,99589.34
2019-02-24T18:09:00.995Z,99593.74
2019-02-24T18:11:27.745Z,99595.44
2019-02-24T18:13:54.593Z,99597.81
2019-02-24T18:16:21.474Z,99597.49
2019-02-24T18:18:48.284Z,99601.89
2019-02-24T18:21:15.105Z,99601.74
2019-02-24T18:23:42.175Z,99604.27
2019-02-24T18:26:10.024Z,99604.65
2019-02-24T18:28:36.723Z,99607.34
2019-02-24T18:31:03.831Z,99602.83
2019-02-24T18:33:30.634Z,99605.50
2019-02-24T18:35:57.485Z,99611.73
2019-02-24T18:38:24.389Z,99604.37
2019-02-24T18:40:51.066Z,99599.18
2019-02-24T18:43:17.863Z,99598.52
2019-02-24T18:45:44.635Z,99601.02
2019-02-24T18:48:11.265Z,99596.20
2019-02-24T18:50:37.990Z,99598.70
2019-02-24T18:53:06.399Z,99598.87
2019-02-24T18:55:33.354Z,99596.69
2019-02-24T18:58:00.150Z,99599.70
2019-02-24T19:05:17.258Z,99607.05
2019-02-24T19:07:43.935Z,99615.07
2019-02-24T19:10:12.595Z,99615.55
2019-02-24T19:12:40.476Z,99608.85
2019-02-24T19:15:09.157Z,99611.85
2019-02-24T19:17:36.205Z,99614.88
2019-02-24T19:20:03.629Z,99609.03
2019-02-24T19:22:30.396Z,99606.67
2019-02-24T19:24:57.291Z,99610.02
2019-02-24T19:27:24.256Z,99617.03
2019-02-24T19:29:51.046Z,99615.34
2019-02-24T19:32:17.776Z,99613.31
2019-02-24T19:34:44.493Z,99615.81
2019-02-24T19:37:11.175Z,99617.66
2019-02-24T19:39:37.868Z,99619.82
2019-02-24T19:42:04.692Z,99621.30
2019-02-24T19:44:31.523Z,99616.77
2019-02-24T19:46:58.388Z,99614.92
2019-02-24T19:49:25.242Z,99615.89
2019-02-24T19:51:51.937Z,99619.41
2019-02-24T19:54:18.651Z,99622.91
2019-02-24T19:56:45.513Z,99617.38
2019-02-24T19:59:12.324Z,99616.86
2019-02-24T20:01:39.043Z,99612.67
2019-02-24T20:04:05.880Z,99612.49
2019-02-24T20:06:32.794Z,99613.98
2019-02-24T20:08:59.486Z,99621.81
2019-02-24T20:11:26.237Z,99625.14
2019-02-24T20:13:53.018Z,99618.97
2019-02-24T20:16:19.833Z,99621.95
2019-02-24T20:18:46.769Z,99627.95
2019-02-24T20:21:13.446Z,99629.94
2019-02-24T20:23:40.097Z,99631.41
2019-02-24T20:26:06.773Z,99637.05
2019-02-24T20:28:33.539Z,99636.87
2019-02-24T20:31:00.287Z,99635.50
2019-02-24T20:33:26.937Z,99632.00
2019-02-24T20:35:53.537Z,99630.98
2019-02-24T20:38:20.259Z,99629.77
2019-02-24T20:40:47.139Z,99637.58
2019-02-24T20:43:14.263Z,99637.05
2019-02-24T20:45:41.111Z,99641.37
2019-02-24T20:48:08.162Z,99643.50
2019-02-24T20:50:35.051Z,99639.66
2019-02-24T20:53:01.873Z,99642.17
2019-02-24T20:55:28.563Z,99645.64
2019-02-24T20:57:56.431Z,99644.95
2019-02-24T21:00:25.775Z,99649.95
2019-02-24T21:02:52.643Z,99645.26
2019-02-24T21:05:19.515Z,99646.41
2019-02-24T21:07:46.226Z,99646.37
2019-02-24T21:10:13.281Z,99657.19
2019-02-24T21:12:41.143Z,99659.17
2019-02-24T21:15:08.957Z,99654.48
2019-02-24T21:17:36.672Z,99655.47
2019-02-24T21:20:04.648Z,99658.29
2019-02-24T21:22:31.519Z,99658.94
2019-02-24T21:24:58.307Z,99657.78
2019-02-24T21:27:25.014Z,99662.92
2019-02-24T21:29:51.913Z,99659.23
2019-02-24T21:32:18.821Z,99662.20
2019-02-24T21:34:46.549Z,99660.33
2019-02-24T21:37:13.547Z,99661.31
2019-02-24T21:39:40.379Z,99656.78
2019-02-24T21:42:08.113Z,99663.59
2019-02-24T21:44:35.174Z,99666.22
2019-02-24T21:47:01.949Z,99663.55
2019-02-24T21:49:28.888Z,99666.55
2019-02-24T21:51:55.723Z,99670.70
2019-02-24T21:54:22.507Z,99662.16
2019-02-24T21:56:51.749Z,99661.33
2019-02-24T21:59:20.613Z,99661.97
2019-02-24T22:01:47.994Z,99654.72
2019-02-24T22:04:14.824Z,99651.71
2019-02-24T22:06:41.978Z,99650.48
2019-02-24T22:09:09.723Z,99650.78
2019-02-24T22:11:36.435Z,99650.61
2019-02-24T22:14:03.581Z,99651.11
2019-02-24T22:16:30.389Z,99654.12
2019-02-24T22:18:57.244Z,99648.44
2019-02-24T22:21:24.079Z,99645.78
2019-02-24T22:23:51.858Z,99646.91
2019-02-24T22:26:18.700Z,99646.57
2019-02-24T22:28:45.561Z,99650.22
2019-02-24T22:31:12.387Z,99646.87
2019-02-24T22:33:39.126Z,99646.17
2019-02-24T22:36:06.942Z,99648.50
2019-02-24T22:38:34.690Z,99649.63
2019-02-24T22:41:01.452Z,99649.92
2019-02-24T22:43:28.098Z,99644.05
2019-02-24T22:45:54.924Z,99646.52
2019-02-24T22:48:21.760Z,99638.36
2019-02-24T22:50:48.513Z,99628.94
2019-02-24T22:53:15.302Z,99632.98
2019-02-24T22:55:41.996Z,99629.34
2019-02-24T22:58:08.920Z,99627.81
2019-02-24T23:00:53.037Z,99621.30
2019-02-24T23:03:19.836Z,99621.45
2019-02-24T23:05:46.738Z,99625.09
2019-02-24T23:08:13.415Z,99628.94
2019-02-24T23:10:40.225Z,99621.45
2019-02-24T23:13:07.001Z,99621.45
2019-02-24T23:15:33.834Z,99623.77
2019-02-24T23:18:00.506Z,99625.24
2019-02-24T23:20:27.163Z,99627.70
2019-02-24T23:22:53.994Z,99634.45
2019-02-24T23:25:20.661Z,99630.75
2019-02-24T23:27:47.313Z,99631.05
2019-02-24T23:30:14.167Z,99624.02
2019-02-24T23:32:40.998Z,99625.70
2019-02-24T23:35:07.773Z,99629.34
2019-02-24T23:37:34.427Z,99631.17
2019-02-24T23:40:01.126Z,99632.98
2019-02-24T23:42:27.855Z,99635.66
2019-02-24T23:44:54.511Z,99639.73
2019-02-24T23:47:21.187Z,99640.72
2019-02-24T23:49:48.004Z,99640.52
2019-02-24T23:52:14.674Z,99634.35
2019-02-24T23:54:41.624Z,99634.84
2019-02-24T23:57:08.291Z,99629.52
2019-02-24T23:59:35.089Z,99627.35
